createdAt,value
2022-12-01T00:00:54.692Z,54.28
2022-12-01T00:03:22.347Z,49.45
2022-12-01T00:05:59.519Z,50.03
2022-12-01T00:08:27.528Z,56.17
2022-12-01T00:10:54.276Z,56.22
2022-12-01T00:13:21.227Z,52.60
2022-12-01T00:15:47.936Z,51.45
2022-12-01T00:18:14.772Z,55.42
2022-12-01T00:20:41.905Z,55.13
2022-12-01T00:23:08.860Z,54.72
2022-12-01T00:25:36.964Z,60.22
2022-12-01T00:28:04.204Z,57.35
2022-12-01T00:30:34.628Z,57.38
2022-12-01T00:33:03.448Z,60.83
2022-12-01T00:37:58.838Z,59.35
2022-12-01T00:40:25.489Z,60.17
2022-12-01T00:42:54.955Z,62.83
2022-12-01T00:45:22.003Z,61.22
2022-12-01T00:47:48.691Z,57.55
2022-12-01T00:50:15.425Z,59.45
2022-12-01T00:52:42.628Z,59.67
2022-12-01T00:55:09.667Z,63.33
2022-12-01T00:57:37.052Z,62.97
2022-12-01T01:00:05.791Z,65.38
2022-12-01T01:02:34.321Z,60.75
2022-12-01T01:05:01.379Z,61.75
2022-12-01T01:07:30.755Z,67.38
2022-12-01T01:12:23.860Z,57.08
2022-12-01T01:14:50.337Z,58.95
2022-12-01T01:17:17.007Z,59.65
2022-12-01T01:19:43.780Z,57.38
2022-12-01T01:22:10.495Z,64.20
2022-12-01T01:24:37.850Z,57.30
2022-12-01T01:27:07.788Z,62.45
2022-12-01T01:29:39.140Z,69.82
2022-12-01T01:32:05.768Z,62.45
2022-12-01T01:34:35.420Z,60.65
2022-12-01T01:37:04.000Z,66.13
2022-12-01T01:39:31.042Z,60.78
2022-12-01T01:41:57.512Z,59.67
2022-12-01T01:44:49.231Z,63.00
2022-12-01T01:47:26.715Z,57.55
2022-12-01T01:49:56.305Z,57.35
2022-12-01T01:52:25.792Z,60.35
2022-12-01T01:54:56.180Z,59.80
2022-12-01T01:57:28.865Z,55.35
2022-12-01T02:00:05.162Z,60.63
2022-12-01T02:02:33.720Z,59.55
2022-12-01T02:05:02.925Z,58.88
2022-12-01T02:07:30.832Z,59.45
2022-12-01T02:09:57.883Z,57.72
2022-12-01T02:12:52.215Z,55.80
2022-12-01T02:15:27.320Z,59.80
2022-12-01T02:18:21.332Z,57.47
2022-12-01T02:20:59.739Z,57.72
2022-12-01T02:23:59.234Z,59.63
2022-12-01T02:26:44.768Z,61.70
2022-12-01T02:29:20.670Z,60.35
2022-12-01T02:31:57.268Z,62.53
2022-12-01T02:34:34.631Z,62.63
2022-12-01T02:37:12.676Z,60.53
2022-12-01T02:39:52.136Z,62.97
2022-12-01T02:42:50.131Z,64.50
2022-12-01T02:45:41.566Z,63.88
2022-12-01T02:48:14.224Z,62.53
2022-12-01T02:50:42.423Z,66.65
2022-12-01T02:53:12.060Z,63.47
2022-12-01T02:55:47.270Z,69.03
2022-12-01T02:58:15.358Z,65.75
2022-12-01T03:00:54.751Z,66.93
2022-12-01T03:06:40.726Z,64.78
2022-12-01T03:09:22.526Z,67.50
2022-12-01T03:12:36.701Z,67.82
2022-12-01T03:15:07.971Z,70.95
2022-12-01T03:17:47.423Z,71.45
2022-12-01T03:20:41.443Z,67.78
2022-12-01T03:23:12.932Z,79.95
2022-12-01T03:25:43.269Z,78.85
2022-12-01T03:28:21.072Z,72.80
2022-12-01T03:30:52.603Z,78.68
2022-12-01T03:33:31.418Z,73.25
2022-12-01T03:36:04.334Z,73.65
2022-12-01T03:38:33.474Z,79.13
2022-12-01T03:41:09.361Z,76.38
2022-12-01T03:43:40.822Z,77.43
2022-12-01T03:46:22.026Z,69.60
2022-12-01T03:48:49.124Z,73.40
2022-12-01T03:51:29.872Z,79.68
2022-12-01T03:54:02.698Z,69.90
2022-12-01T03:56:37.196Z,77.13
2022-12-01T03:59:07.663Z,76.57
2022-12-01T04:01:34.458Z,72.63
2022-12-01T04:04:09.676Z,79.82
2022-12-01T04:06:36.215Z,75.13
2022-12-01T04:09:03.045Z,74.55
2022-12-01T04:11:48.346Z,80.07
2022-12-01T04:14:14.767Z,77.47
2022-12-01T04:16:41.239Z,69.60
2022-12-01T04:19:07.646Z,71.57
2022-12-01T04:21:34.151Z,73.82
2022-12-01T04:24:00.543Z,75.47
2022-12-01T04:26:32.277Z,73.05
2022-12-01T04:29:03.932Z,74.63
2022-12-01T04:31:30.817Z,76.25
2022-12-01T04:33:59.263Z,74.38
2022-12-01T04:36:26.858Z,73.38
2022-12-01T04:38:53.362Z,81.93
2022-12-01T04:41:19.844Z,79.35
2022-12-01T04:43:46.283Z,73.70
2022-12-01T04:46:12.925Z,74.97
2022-12-01T04:48:39.963Z,73.43
2022-12-01T04:51:08.090Z,70.78
2022-12-01T04:53:36.161Z,74.35
2022-12-01T04:56:03.501Z,78.25
2022-12-01T04:58:31.199Z,80.35
2022-12-01T05:01:06.269Z,74.22
2022-12-01T05:03:37.110Z,71.85
2022-12-01T05:06:08.303Z,74.25
2022-12-01T05:08:34.787Z,69.20
2022-12-01T05:11:01.377Z,67.72
2022-12-01T05:13:28.427Z,69.13
2022-12-01T05:16:04.981Z,71.13
2022-12-01T05:18:31.561Z,71.60
2022-12-01T05:20:58.273Z,73.68
2022-12-01T05:23:26.506Z,71.55
2022-12-01T05:25:53.759Z,67.97
2022-12-01T05:28:21.527Z,69.80
2022-12-01T05:30:49.008Z,65.93
2022-12-01T05:33:15.659Z,76.47
2022-12-01T05:35:42.088Z,67.10
2022-12-01T05:38:08.692Z,67.80
2022-12-01T05:40:36.548Z,72.90
2022-12-01T05:43:03.442Z,70.55
2022-12-01T05:45:30.416Z,71.82
2022-12-01T05:48:01.171Z,76.03
2022-12-01T05:50:29.327Z,71.68
2022-12-01T05:52:56.202Z,74.70
2022-12-01T05:55:25.184Z,73.00
2022-12-01T05:57:51.652Z,69.25
2022-12-01T06:00:18.770Z,70.60
2022-12-01T06:02:45.629Z,70.60
2022-12-01T06:05:12.225Z,68.63
2022-12-01T06:07:40.250Z,69.78
2022-12-01T06:10:08.289Z,71.60
2022-12-01T06:12:34.903Z,73.30
2022-12-01T06:15:01.479Z,72.47
2022-12-01T06:17:29.164Z,65.47
2022-12-01T06:19:55.650Z,71.77
2022-12-01T06:22:22.093Z,66.53
2022-12-01T06:24:48.528Z,67.50
2022-12-01T06:27:14.919Z,62.15
2022-12-01T06:29:42.368Z,64.75
2022-12-01T06:32:09.457Z,70.40
2022-12-01T06:34:35.914Z,71.00
2022-12-01T06:37:02.798Z,72.43
2022-12-01T06:39:29.288Z,75.93
2022-12-01T06:41:55.762Z,72.00
2022-12-01T06:44:22.277Z,75.50
2022-12-01T06:46:52.788Z,75.68
2022-12-01T06:49:19.926Z,76.32
2022-12-01T06:51:46.582Z,71.93
2022-12-01T06:54:13.559Z,74.30
2022-12-01T06:56:40.761Z,72.60
2022-12-01T06:59:07.846Z,73.40
2022-12-01T07:01:34.528Z,76.45
2022-12-01T07:04:00.988Z,72.82
2022-12-01T07:06:29.922Z,80.35
2022-12-01T07:08:56.355Z,71.07
2022-12-01T07:11:24.962Z,72.43
2022-12-01T07:13:55.715Z,70.00
2022-12-01T07:16:22.845Z,71.60
2022-12-01T07:18:49.917Z,74.82
2022-12-01T07:21:16.949Z,68.35
2022-12-01T07:23:45.925Z,70.63
2022-12-01T07:26:15.108Z,69.65
2022-12-01T07:28:42.274Z,73.03
2022-12-01T07:31:16.928Z,70.43
2022-12-01T07:33:43.931Z,69.80
2022-12-01T07:36:12.112Z,68.95
2022-12-01T07:38:39.032Z,72.30
2022-12-01T07:41:11.338Z,73.40
2022-12-01T07:43:38.419Z,74.18
2022-12-01T07:46:06.378Z,76.80
2022-12-01T07:48:32.933Z,76.78
2022-12-01T07:50:59.483Z,74.47
2022-12-01T07:53:25.946Z,70.57
2022-12-01T07:55:52.424Z,84.65
2022-12-01T07:58:18.942Z,72.38
2022-12-01T08:00:45.335Z,73.22
2022-12-01T08:03:11.898Z,76.43
2022-12-01T08:05:38.365Z,78.78
2022-12-01T08:08:05.039Z,77.60
2022-12-01T08:10:31.669Z,71.82
2022-12-01T08:12:58.131Z,78.00
2022-12-01T08:15:24.706Z,71.38
2022-12-01T08:17:51.191Z,69.85
2022-12-01T08:20:23.529Z,72.85
2022-12-01T08:22:50.385Z,76.28
2022-12-01T08:25:16.938Z,71.70
2022-12-01T08:27:43.335Z,65.80
2022-12-01T08:30:10.223Z,68.10
2022-12-01T08:32:36.698Z,73.38
2022-12-01T08:35:03.314Z,71.03
2022-12-01T08:37:29.697Z,67.95
2022-12-01T08:39:56.139Z,69.57
2022-12-01T08:42:22.550Z,78.82
2022-12-01T08:44:48.993Z,80.65
2022-12-01T08:47:18.745Z,72.38
2022-12-01T08:49:45.568Z,74.13
2022-12-01T08:52:12.037Z,72.80
2022-12-01T08:54:38.570Z,82.03
2022-12-01T08:57:05.009Z,78.40
2022-12-01T08:59:31.476Z,84.60
2022-12-01T09:01:59.691Z,86.20
2022-12-01T09:04:29.394Z,82.63
2022-12-01T09:06:57.921Z,82.32
2022-12-01T09:14:20.273Z,83.63
2022-12-01T09:16:49.767Z,77.90
2022-12-01T09:19:24.276Z,83.05
2022-12-01T09:21:51.775Z,84.43
2022-12-01T09:24:18.275Z,81.35
2022-12-01T09:26:44.707Z,88.80
2022-12-01T09:29:13.671Z,89.22
2022-12-01T09:31:41.094Z,88.38
2022-12-01T09:34:11.803Z,91.93
2022-12-01T09:36:39.111Z,88.05
2022-12-01T09:39:09.004Z,83.65
2022-12-01T09:41:40.598Z,91.90
2022-12-01T09:44:13.970Z,80.35
2022-12-01T09:46:49.051Z,88.43
2022-12-01T09:49:22.710Z,84.88
2022-12-01T09:51:52.539Z,90.47
2022-12-01T09:54:19.114Z,79.47
2022-12-01T09:56:50.245Z,86.35
2022-12-01T09:59:22.649Z,78.90
2022-12-01T10:02:02.606Z,81.70
2022-12-01T10:04:41.039Z,80.93
2022-12-01T10:10:05.554Z,91.05
2022-12-01T10:12:35.933Z,85.65
2022-12-01T10:15:22.698Z,87.53
2022-12-01T10:18:13.961Z,94.70
2022-12-01T10:21:08.616Z,82.03
2022-12-01T10:24:00.390Z,83.00
2022-12-01T10:26:34.561Z,96.90
2022-12-01T10:29:03.684Z,86.15
2022-12-01T10:31:37.185Z,87.28
2022-12-01T10:34:14.292Z,84.38
2022-12-01T10:36:40.800Z,84.43
2022-12-01T10:39:07.587Z,77.35
2022-12-01T10:41:38.550Z,82.95
2022-12-01T10:44:07.094Z,73.47
2022-12-01T10:49:12.953Z,83.18
2022-12-01T10:51:50.532Z,78.70
2022-12-01T10:54:17.450Z,78.35
2022-12-01T10:56:47.694Z,78.70
2022-12-01T10:59:27.855Z,81.13
2022-12-01T11:01:58.525Z,73.57
2022-12-01T11:04:53.529Z,72.50
2022-12-01T11:07:27.403Z,76.78
2022-12-01T11:10:16.425Z,72.00
2022-12-01T11:12:52.083Z,72.32
2022-12-01T11:15:28.493Z,67.10
2022-12-01T11:18:03.237Z,73.18
2022-12-01T11:20:36.305Z,68.80
2022-12-01T11:23:26.295Z,62.97
2022-12-01T11:25:57.926Z,66.07
2022-12-01T11:28:25.031Z,64.63
2022-12-01T11:31:00.345Z,61.13
2022-12-01T11:33:29.133Z,66.72
2022-12-01T11:35:56.110Z,64.90
2022-12-01T11:38:30.279Z,62.83
2022-12-01T11:40:58.275Z,62.60
2022-12-01T11:43:31.906Z,70.22
2022-12-01T11:46:01.877Z,58.53
2022-12-01T11:48:30.987Z,59.08
2022-12-01T11:51:12.744Z,54.67
2022-12-01T11:53:42.098Z,56.30
2022-12-01T11:56:17.027Z,58.97
2022-12-01T11:58:45.344Z,65.55
2022-12-01T12:01:30.172Z,63.08
2022-12-01T12:04:09.932Z,64.55
2022-12-01T12:07:02.571Z,59.38
2022-12-01T12:09:59.087Z,60.60
2022-12-01T12:12:31.267Z,55.63
2022-12-01T12:15:25.120Z,59.13
2022-12-01T12:18:10.360Z,58.38
2022-12-01T12:20:56.607Z,58.17
2022-12-01T12:23:59.873Z,58.38
2022-12-01T12:26:30.346Z,60.33
2022-12-01T12:29:35.893Z,57.05
2022-12-01T12:32:18.169Z,52.25
2022-12-01T12:35:16.269Z,54.33
2022-12-01T12:40:56.461Z,52.00
2022-12-01T12:43:33.435Z,49.63
2022-12-01T12:46:02.187Z,52.30
2022-12-01T12:49:11.581Z,48.42
2022-12-01T12:51:43.176Z,50.88
2022-12-01T12:54:12.388Z,47.08
2022-12-01T12:56:44.797Z,47.17
2022-12-01T12:59:28.388Z,45.50
2022-12-01T13:02:15.719Z,46.83
2022-12-01T13:04:45.109Z,43.47
2022-12-01T13:07:32.136Z,46.90
2022-12-01T13:10:40.177Z,41.90
2022-12-01T13:13:32.105Z,43.45
2022-12-01T13:16:02.469Z,44.35
2022-12-01T13:18:43.198Z,42.10
2022-12-01T13:21:17.272Z,40.22
2022-12-01T13:23:45.838Z,41.65
2022-12-01T13:26:12.972Z,44.65
2022-12-01T13:28:55.424Z,42.95
2022-12-01T13:31:22.659Z,42.65
2022-12-01T13:33:59.188Z,49.65
2022-12-01T13:39:28.577Z,41.20
2022-12-01T13:42:19.524Z,39.13
2022-12-01T13:44:57.024Z,49.05
2022-12-01T13:47:38.925Z,40.13
2022-12-01T13:50:48.709Z,41.05
2022-12-01T13:53:27.365Z,43.38
2022-12-01T13:56:03.162Z,44.45
2022-12-01T13:58:32.910Z,43.13
2022-12-01T14:01:21.375Z,45.20
2022-12-01T14:04:03.607Z,48.20
2022-12-01T14:06:35.879Z,54.30
2022-12-01T14:09:15.496Z,47.40
2022-12-01T14:11:54.173Z,48.13
2022-12-01T14:14:26.164Z,45.80
2022-12-01T14:16:58.680Z,49.60
2022-12-01T14:19:32.953Z,53.88
2022-12-01T14:22:01.771Z,46.20
2022-12-01T14:24:35.581Z,49.67
2022-12-01T14:27:04.214Z,43.28
2022-12-01T14:29:38.853Z,44.50
2022-12-01T14:32:20.434Z,46.50
2022-12-01T14:34:51.653Z,48.53
2022-12-01T14:37:21.023Z,51.05
2022-12-01T14:39:57.401Z,48.25
2022-12-01T14:42:56.398Z,46.67
2022-12-01T14:45:27.680Z,47.55
2022-12-01T14:48:03.904Z,49.22
2022-12-01T14:50:35.019Z,45.67
2022-12-01T14:53:09.021Z,42.88
2022-12-01T14:55:40.454Z,46.40
2022-12-01T14:58:15.076Z,45.30
2022-12-01T15:00:56.479Z,45.50
2022-12-01T15:03:28.961Z,47.25
2022-12-01T15:05:58.363Z,42.95
2022-12-01T15:09:04.220Z,45.53
2022-12-01T15:11:25.316Z,44.17
2022-12-01T15:13:54.696Z,45.72
2022-12-01T15:16:28.934Z,49.60
2022-12-01T15:18:55.594Z,49.53
2022-12-01T15:21:23.554Z,45.47
2022-12-01T15:24:03.444Z,42.75
2022-12-01T15:26:36.146Z,47.55
2022-12-01T15:29:11.670Z,43.20
2022-12-01T15:31:38.319Z,47.67
2022-12-01T15:34:04.971Z,42.42
2022-12-01T15:36:31.445Z,48.33
2022-12-01T15:39:07.062Z,45.75
2022-12-01T15:41:37.279Z,49.92
2022-12-01T15:44:05.493Z,47.10
2022-12-01T15:46:34.493Z,49.67
2022-12-01T15:49:14.547Z,48.05
2022-12-01T15:51:41.022Z,48.50
2022-12-01T15:54:18.864Z,53.22
2022-12-01T15:56:46.325Z,50.45
2022-12-01T15:59:12.725Z,48.13
2022-12-01T16:01:43.676Z,49.75
2022-12-01T16:04:32.223Z,51.95
2022-12-01T16:07:05.520Z,46.40
2022-12-01T16:09:39.544Z,50.25
2022-12-01T16:12:09.064Z,45.20
2022-12-01T16:14:36.497Z,48.70
2022-12-01T16:17:04.562Z,52.45
2022-12-01T16:19:33.012Z,52.35
2022-12-01T16:22:02.302Z,48.28
2022-12-01T16:24:38.355Z,51.53
2022-12-01T16:27:18.839Z,51.53
2022-12-01T16:29:54.483Z,50.65
2022-12-01T16:32:40.487Z,49.95
2022-12-01T16:35:21.478Z,50.60
2022-12-01T16:37:47.939Z,49.03
2022-12-01T16:40:14.957Z,50.22
2022-12-01T16:42:41.420Z,58.75
2022-12-01T16:45:11.176Z,50.17
2022-12-01T16:47:37.616Z,46.95
2022-12-01T16:50:04.402Z,48.05
2022-12-01T16:52:46.341Z,49.88
2022-12-01T16:55:21.756Z,50.83
2022-12-01T16:57:48.255Z,52.53
2022-12-01T17:00:15.210Z,57.30
2022-12-01T17:02:41.929Z,53.78
2022-12-01T17:05:11.157Z,48.28
2022-12-01T17:07:37.890Z,56.20
2022-12-01T17:10:05.310Z,53.28
2022-12-01T17:12:31.749Z,54.30
2022-12-01T17:14:58.159Z,52.53
2022-12-01T17:17:24.623Z,50.60
2022-12-01T17:19:54.181Z,48.03
2022-12-01T17:22:20.860Z,47.20
2022-12-01T17:24:47.462Z,51.72
2022-12-01T17:27:14.167Z,48.53
2022-12-01T17:29:45.957Z,49.22
2022-12-01T17:32:13.695Z,48.55
2022-12-01T17:34:40.206Z,47.38
2022-12-01T17:37:06.824Z,46.53
2022-12-01T17:39:33.268Z,49.15
2022-12-01T17:41:59.727Z,46.55
2022-12-01T17:44:26.425Z,49.50
2022-12-01T17:46:53.084Z,48.92
2022-12-01T17:49:19.689Z,52.92
2022-12-01T17:51:46.237Z,49.72
2022-12-01T17:54:12.723Z,50.33
2022-12-01T17:56:39.216Z,46.47
2022-12-01T17:59:05.725Z,48.10
2022-12-01T18:01:32.587Z,47.70
2022-12-01T18:03:59.186Z,47.40
2022-12-01T18:06:26.671Z,47.63
2022-12-01T18:08:53.586Z,51.47
2022-12-01T18:11:20.871Z,47.85
2022-12-01T18:13:49.603Z,48.80
2022-12-01T18:16:22.527Z,44.70
2022-12-01T18:18:50.063Z,51.92
2022-12-01T18:21:18.698Z,52.42
2022-12-01T18:24:02.678Z,48.80
2022-12-01T18:26:31.791Z,51.95
2022-12-01T18:29:01.126Z,49.53
2022-12-01T18:31:28.827Z,50.22
2022-12-01T18:33:58.435Z,56.47
2022-12-01T18:36:26.029Z,52.42
2022-12-01T18:38:54.415Z,49.43
2022-12-01T18:43:47.565Z,48.83
2022-12-01T18:46:15.465Z,55.78
2022-12-01T18:48:50.997Z,52.58
2022-12-01T18:51:18.782Z,54.60
2022-12-01T18:53:45.476Z,56.03
2022-12-01T18:56:12.823Z,59.03
2022-12-01T18:58:40.536Z,58.17
2022-12-01T19:01:22.572Z,63.45
2022-12-01T19:03:49.106Z,59.58
2022-12-01T19:06:16.212Z,68.47
2022-12-01T19:08:42.628Z,62.60
2022-12-01T19:11:09.082Z,62.08
2022-12-01T19:13:35.942Z,66.80
2022-12-01T19:16:14.044Z,68.95
2022-12-01T19:18:40.575Z,73.55
2022-12-01T19:21:09.555Z,75.80
2022-12-01T19:23:36.005Z,75.35
2022-12-01T19:26:06.964Z,75.65
2022-12-01T19:28:34.581Z,78.32
2022-12-01T19:31:05.695Z,75.13
2022-12-01T19:33:32.410Z,81.80
2022-12-01T19:36:24.351Z,80.22
2022-12-01T19:38:51.387Z,84.05
2022-12-01T19:41:20.669Z,87.70
2022-12-01T19:43:47.842Z,80.20
2022-12-01T19:46:18.140Z,75.70
2022-12-01T19:48:45.452Z,78.07
2022-12-01T19:51:23.699Z,82.03
2022-12-01T19:53:50.715Z,79.53
2022-12-01T19:56:17.890Z,79.20
2022-12-01T19:58:44.436Z,84.18
2022-12-01T20:01:15.644Z,76.32
2022-12-01T20:03:45.547Z,84.45
2022-12-01T20:06:15.941Z,83.75
2022-12-01T20:08:42.857Z,87.80
2022-12-01T20:11:10.095Z,86.13
2022-12-01T20:13:39.109Z,88.45
2022-12-01T20:16:09.179Z,87.50
2022-12-01T20:18:36.428Z,85.93
2022-12-01T20:21:16.469Z,85.00
2022-12-01T20:23:44.308Z,81.90
2022-12-01T20:26:11.759Z,86.95
2022-12-01T20:28:39.526Z,88.35
2022-12-01T20:31:13.455Z,85.47
2022-12-01T20:33:40.240Z,80.43
2022-12-01T20:36:07.707Z,86.20
2022-12-01T20:38:34.842Z,77.95
2022-12-01T20:41:01.337Z,87.07
2022-12-01T20:43:28.501Z,81.22
2022-12-01T20:45:55.118Z,91.63
2022-12-01T20:48:22.319Z,79.40
2022-12-01T20:50:48.791Z,81.88
2022-12-01T20:53:15.473Z,75.68
2022-12-01T20:55:42.052Z,76.03
2022-12-01T20:58:09.156Z,89.03
2022-12-01T21:00:41.661Z,81.78
2022-12-01T21:03:08.476Z,76.07
2022-12-01T21:05:42.115Z,88.43
2022-12-01T21:08:11.954Z,77.65
2022-12-01T21:10:44.989Z,73.22
2022-12-01T21:13:39.187Z,80.85
2022-12-01T21:16:15.729Z,76.38
2022-12-01T21:18:45.913Z,77.53
2022-12-01T21:21:26.482Z,71.18
2022-12-01T21:24:08.245Z,77.03
2022-12-01T21:26:40.786Z,82.90
2022-12-01T21:29:26.067Z,78.32
2022-12-01T21:32:00.593Z,77.63
2022-12-01T21:34:28.546Z,81.10
2022-12-01T21:37:01.607Z,78.28
2022-12-01T21:39:29.247Z,75.30
2022-12-01T21:41:59.869Z,78.43
2022-12-01T21:44:36.828Z,81.90
2022-12-01T21:47:16.538Z,80.15
2022-12-01T21:49:45.062Z,77.53
2022-12-01T21:54:40.164Z,68.57
2022-12-01T21:57:29.225Z,71.97
2022-12-01T22:00:05.892Z,75.88
2022-12-01T22:03:26.102Z,70.97
2022-12-01T22:06:27.804Z,74.45
2022-12-01T22:08:46.539Z,82.85
2022-12-01T22:13:48.239Z,77.15
2022-12-01T22:16:19.467Z,81.40
2022-12-01T22:18:49.896Z,73.95
2022-12-01T22:21:22.380Z,76.35
2022-12-01T22:24:07.604Z,80.78
2022-12-01T22:26:36.929Z,72.38
2022-12-01T22:29:18.567Z,82.25
2022-12-01T22:31:45.001Z,81.10
2022-12-01T22:34:13.685Z,75.90
2022-12-01T22:36:40.096Z,73.63
2022-12-01T22:39:30.749Z,77.97
2022-12-01T22:42:00.961Z,75.75
2022-12-01T22:44:30.575Z,76.70
2022-12-01T22:47:02.048Z,74.78
2022-12-01T22:49:29.816Z,78.65
2022-12-01T22:52:09.411Z,75.10
2022-12-01T22:54:42.812Z,74.07
2022-12-01T22:57:34.859Z,77.03
2022-12-01T23:00:13.920Z,76.00
2022-12-01T23:02:40.447Z,76.68
2022-12-01T23:05:29.276Z,76.03
2022-12-01T23:07:57.082Z,75.38
2022-12-01T23:10:34.908Z,79.03
2022-12-01T23:13:13.875Z,70.03
2022-12-01T23:15:44.835Z,80.95
2022-12-01T23:18:21.050Z,81.53
2022-12-01T23:20:58.514Z,73.97
2022-12-01T23:23:30.311Z,74.22
2022-12-01T23:25:57.833Z,68.28
2022-12-01T23:28:24.968Z,78.28
2022-12-01T23:30:54.972Z,71.88
2022-12-01T23:33:24.083Z,64.07
2022-12-01T23:35:57.754Z,72.45
2022-12-01T23:38:31.082Z,67.03
2022-12-01T23:41:01.738Z,73.50
2022-12-01T23:43:38.502Z,68.90
2022-12-01T23:46:14.301Z,69.13
2022-12-01T23:48:45.076Z,73.57
2022-12-01T23:51:35.988Z,66.72
2022-12-01T23:54:12.632Z,68.55
2022-12-01T23:56:40.059Z,70.55
2022-12-01T23:59:12.970Z,71.22
